sensor_id;sensor_type;location;lat;lon;timestamp;P1;durP1;ratioP1;P2;durP2;ratioP2
3211;SDS011;1618;47.056;15.472;2023-07-13T00:01:34;26.50;;;24.90;;
3211;SDS011;1618;47.056;15.472;2023-07-13T00:04:04;26.00;;;24.40;;
3211;SDS011;1618;47.056;15.472;2023-07-13T00:06:34;25.47;;;23.90;;
3211;SDS011;1618;47.056;15.472;2023-07-13T00:09:02;26.90;;;25.20;;
3211;SDS011;1618;47.056;15.472;2023-07-13T00:11:38;26.70;;;25.00;;
3211;SDS011;1618;47.056;15.472;2023-07-13T00:14:07;26.80;;;25.10;;
3211;SDS011;1618;47.056;15.472;2023-07-13T00:16:35;28.33;;;26.53;;
3211;SDS011;1618;47.056;15.472;2023-07-13T00:19:05;28.23;;;26.43;;
3211;SDS011;1618;47.056;15.472;2023-07-13T00:21:33;27.97;;;26.10;;
3211;SDS011;1618;47.056;15.472;2023-07-13T00:24:02;27.70;;;25.90;;
3211;SDS011;1618;47.056;15.472;2023-07-13T00:26:29;27.97;;;26.17;;
3211;SDS011;1618;47.056;15.472;2023-07-13T00:29:00;27.97;;;26.17;;
3211;SDS011;1618;47.056;15.472;2023-07-13T00:31:29;27.70;;;25.90;;
3211;SDS011;1618;47.056;15.472;2023-07-13T00:33:56;27.50;;;25.70;;
3211;SDS011;1618;47.056;15.472;2023-07-13T00:36:26;26.90;;;25.10;;
3211;SDS011;1618;47.056;15.472;2023-07-13T00:38:55;28.20;;;26.40;;
3211;SDS011;1618;47.056;15.472;2023-07-13T00:41:23;25.77;;;24.17;;
3211;SDS011;1618;47.056;15.472;2023-07-13T00:43:52;29.10;;;27.20;;
3211;SDS011;1618;47.056;15.472;2023-07-13T00:46:22;28.07;;;26.10;;
3211;SDS011;1618;47.056;15.472;2023-07-13T00:48:51;28.20;;;26.30;;
3211;SDS011;1618;47.056;15.472;2023-07-13T00:51:25;28.00;;;26.10;;
3211;SDS011;1618;47.056;15.472;2023-07-13T00:53:54;27.97;;;26.07;;
3211;SDS011;1618;47.056;15.472;2023-07-13T00:56:23;26.90;;;25.20;;
3211;SDS011;1618;47.056;15.472;2023-07-13T00:58:51;28.27;;;26.37;;
3211;SDS011;1618;47.056;15.472;2023-07-13T01:01:18;28.40;;;26.50;;
3211;SDS011;1618;47.056;15.472;2023-07-13T01:03:49;28.73;;;26.83;;
3211;SDS011;1618;47.056;15.472;2023-07-13T01:06:22;28.63;;;26.83;;
3211;SDS011;1618;47.056;15.472;2023-07-13T01:08:51;28.80;;;27.00;;
3211;SDS011;1618;47.056;15.472;2023-07-13T01:11:21;28.33;;;26.57;;
3211;SDS011;1618;47.056;15.472;2023-07-13T01:13:48;28.40;;;26.60;;
3211;SDS011;1618;47.056;15.472;2023-07-13T01:16:19;29.47;;;27.57;;
3211;SDS011;1618;47.056;15.472;2023-07-13T01:18:47;29.07;;;27.17;;
3211;SDS011;1618;47.056;15.472;2023-07-13T01:21:17;29.70;;;27.60;;
3211;SDS011;1618;47.056;15.472;2023-07-13T01:23:44;29.90;;;27.90;;
3211;SDS011;1618;47.056;15.472;2023-07-13T01:26:12;29.00;;;27.10;;
3211;SDS011;1618;47.056;15.472;2023-07-13T01:28:39;28.80;;;27.00;;
3211;SDS011;1618;47.056;15.472;2023-07-13T01:31:07;27.50;;;25.80;;
3211;SDS011;1618;47.056;15.472;2023-07-13T01:33:36;26.60;;;25.20;;
3211;SDS011;1618;47.056;15.472;2023-07-13T01:36:05;24.43;;;22.70;;
3211;SDS011;1618;47.056;15.472;2023-07-13T01:38:35;21.33;;;20.13;;
3211;SDS011;1618;47.056;15.472;2023-07-13T01:41:02;17.80;;;16.90;;
3211;SDS011;1618;47.056;15.472;2023-07-13T01:43:31;14.80;;;14.00;;
3211;SDS011;1618;47.056;15.472;2023-07-13T01:46:00;12.30;;;11.80;;
3211;SDS011;1618;47.056;15.472;2023-07-13T01:48:28;12.40;;;11.90;;
3211;SDS011;1618;47.056;15.472;2023-07-13T01:50:57;10.97;;;10.47;;
3211;SDS011;1618;47.056;15.472;2023-07-13T01:53:27;9.70;;;9.30;;
3211;SDS011;1618;47.056;15.472;2023-07-13T01:55:56;9.10;;;8.77;;
3211;SDS011;1618;47.056;15.472;2023-07-13T01:58:28;7.20;;;6.90;;
3211;SDS011;1618;47.056;15.472;2023-07-13T02:00:59;5.30;;;5.07;;
3211;SDS011;1618;47.056;15.472;2023-07-13T02:03:29;3.60;;;3.50;;
3211;SDS011;1618;47.056;15.472;2023-07-13T02:05:56;3.17;;;3.00;;
3211;SDS011;1618;47.056;15.472;2023-07-13T02:08:23;3.20;;;3.00;;
3211;SDS011;1618;47.056;15.472;2023-07-13T02:10:52;2.27;;;2.17;;
3211;SDS011;1618;47.056;15.472;2023-07-13T02:13:22;1.80;;;1.80;;
3211;SDS011;1618;47.056;15.472;2023-07-13T02:15:51;2.27;;;2.07;;
3211;SDS011;1618;47.056;15.472;2023-07-13T02:18:18;1.73;;;1.73;;
3211;SDS011;1618;47.056;15.472;2023-07-13T02:20:46;1.40;;;1.40;;
3211;SDS011;1618;47.056;15.472;2023-07-13T02:23:19;2.00;;;1.90;;
3211;SDS011;1618;47.056;15.472;2023-07-13T02:25:46;0.90;;;0.90;;
3211;SDS011;1618;47.056;15.472;2023-07-13T02:28:14;1.30;;;1.20;;
3211;SDS011;1618;47.056;15.472;2023-07-13T02:30:44;0.80;;;0.70;;
3211;SDS011;1618;47.056;15.472;2023-07-13T02:33:12;1.00;;;0.90;;
3211;SDS011;1618;47.056;15.472;2023-07-13T02:35:39;1.83;;;1.10;;
3211;SDS011;1618;47.056;15.472;2023-07-13T02:38:08;0.90;;;0.90;;
3211;SDS011;1618;47.056;15.472;2023-07-13T02:40:37;2.47;;;2.37;;
3211;SDS011;1618;47.056;15.472;2023-07-13T02:43:07;1.00;;;1.00;;
3211;SDS011;1618;47.056;15.472;2023-07-13T02:45:36;1.27;;;1.27;;
3211;SDS011;1618;47.056;15.472;2023-07-13T02:48:06;0.90;;;0.90;;
3211;SDS011;1618;47.056;15.472;2023-07-13T02:50:33;1.10;;;1.10;;
3211;SDS011;1618;47.056;15.472;2023-07-13T02:53:00;0.97;;;0.97;;
3211;SDS011;1618;47.056;15.472;2023-07-13T02:55:27;1.07;;;1.07;;
3211;SDS011;1618;47.056;15.472;2023-07-13T02:57:57;0.90;;;0.90;;
3211;SDS011;1618;47.056;15.472;2023-07-13T03:00:24;1.37;;;1.27;;
3211;SDS011;1618;47.056;15.472;2023-07-13T03:02:54;0.90;;;0.90;;
3211;SDS011;1618;47.056;15.472;2023-07-13T03:05:24;0.70;;;0.70;;
3211;SDS011;1618;47.056;15.472;2023-07-13T03:07:51;0.80;;;0.80;;
3211;SDS011;1618;47.056;15.472;2023-07-13T03:10:18;0.90;;;0.90;;
3211;SDS011;1618;47.056;15.472;2023-07-13T03:12:47;1.90;;;1.43;;
3211;SDS011;1618;47.056;15.472;2023-07-13T03:15:15;1.30;;;1.20;;
3211;SDS011;1618;47.056;15.472;2023-07-13T03:17:43;1.43;;;1.40;;
3211;SDS011;1618;47.056;15.472;2023-07-13T03:20:11;1.23;;;1.23;;
3211;SDS011;1618;47.056;15.472;2023-07-13T03:22:40;1.10;;;1.10;;
3211;SDS011;1618;47.056;15.472;2023-07-13T03:25:09;22.50;;;1.70;;
3211;SDS011;1618;47.056;15.472;2023-07-13T03:27:36;0.90;;;0.90;;
3211;SDS011;1618;47.056;15.472;2023-07-13T03:30:04;1.70;;;1.60;;
3211;SDS011;1618;47.056;15.472;2023-07-13T03:32:32;0.80;;;0.80;;
3211;SDS011;1618;47.056;15.472;2023-07-13T03:35:00;2.77;;;1.47;;
3211;SDS011;1618;47.056;15.472;2023-07-13T03:37:27;0.80;;;0.70;;
3211;SDS011;1618;47.056;15.472;2023-07-13T03:39:56;0.70;;;0.70;;
3211;SDS011;1618;47.056;15.472;2023-07-13T03:42:23;0.83;;;0.83;;
3211;SDS011;1618;47.056;15.472;2023-07-13T03:44:51;0.87;;;0.87;;
3211;SDS011;1618;47.056;15.472;2023-07-13T03:47:20;1.33;;;1.23;;
3211;SDS011;1618;47.056;15.472;2023-07-13T03:49:47;0.90;;;0.90;;
3211;SDS011;1618;47.056;15.472;2023-07-13T03:52:16;1.50;;;1.40;;
3211;SDS011;1618;47.056;15.472;2023-07-13T03:54:44;1.23;;;1.23;;
3211;SDS011;1618;47.056;15.472;2023-07-13T03:57:13;1.87;;;1.77;;
3211;SDS011;1618;47.056;15.472;2023-07-13T03:59:41;1.77;;;1.67;;
3211;SDS011;1618;47.056;15.472;2023-07-13T04:02:09;0.90;;;0.90;;
3211;SDS011;1618;47.056;15.472;2023-07-13T04:04:37;1.30;;;1.20;;
3211;SDS011;1618;47.056;15.472;2023-07-13T04:07:07;1.00;;;1.00;;
3211;SDS011;1618;47.056;15.472;2023-07-13T04:09:35;1.20;;;1.20;;
3211;SDS011;1618;47.056;15.472;2023-07-13T04:12:03;0.97;;;0.97;;
3211;SDS011;1618;47.056;15.472;2023-07-13T04:14:31;2.60;;;2.50;;
3211;SDS011;1618;47.056;15.472;2023-07-13T04:17:00;1.40;;;1.30;;
3211;SDS011;1618;47.056;15.472;2023-07-13T04:19:27;1.17;;;1.17;;
3211;SDS011;1618;47.056;15.472;2023-07-13T04:21:54;1.73;;;1.20;;
3211;SDS011;1618;47.056;15.472;2023-07-13T04:24:22;0.97;;;0.93;;
3211;SDS011;1618;47.056;15.472;2023-07-13T04:26:49;1.17;;;1.17;;
3211;SDS011;1618;47.056;15.472;2023-07-13T04:29:16;0.90;;;0.90;;
3211;SDS011;1618;47.056;15.472;2023-07-13T04:31:48;1.50;;;1.40;;
3211;SDS011;1618;47.056;15.472;2023-07-13T04:34:15;1.07;;;1.07;;
3211;SDS011;1618;47.056;15.472;2023-07-13T04:36:43;1.30;;;1.30;;
3211;SDS011;1618;47.056;15.472;2023-07-13T04:39:10;1.33;;;1.23;;
3211;SDS011;1618;47.056;15.472;2023-07-13T04:41:37;1.10;;;1.10;;
3211;SDS011;1618;47.056;15.472;2023-07-13T04:44:06;0.93;;;0.93;;
3211;SDS011;1618;47.056;15.472;2023-07-13T04:46:34;1.40;;;1.23;;
3211;SDS011;1618;47.056;15.472;2023-07-13T04:49:04;1.40;;;1.10;;
3211;SDS011;1618;47.056;15.472;2023-07-13T04:51:31;1.40;;;1.20;;
3211;SDS011;1618;47.056;15.472;2023-07-13T04:53:58;2.40;;;2.30;;
3211;SDS011;1618;47.056;15.472;2023-07-13T04:56:26;1.00;;;1.00;;
3211;SDS011;1618;47.056;15.472;2023-07-13T04:58:55;0.90;;;0.90;;
3211;SDS011;1618;47.056;15.472;2023-07-13T05:01:24;1.00;;;1.00;;
3211;SDS011;1618;47.056;15.472;2023-07-13T05:03:53;1.10;;;1.10;;
3211;SDS011;1618;47.056;15.472;2023-07-13T05:06:28;1.10;;;1.10;;
3211;SDS011;1618;47.056;15.472;2023-07-13T05:08:56;1.20;;;1.20;;
3211;SDS011;1618;47.056;15.472;2023-07-13T05:11:24;0.90;;;0.90;;
3211;SDS011;1618;47.056;15.472;2023-07-13T05:13:53;1.03;;;1.03;;
3211;SDS011;1618;47.056;15.472;2023-07-13T05:16:20;0.90;;;0.90;;
3211;SDS011;1618;47.056;15.472;2023-07-13T05:18:48;1.53;;;1.10;;
3211;SDS011;1618;47.056;15.472;2023-07-13T05:21:17;0.93;;;0.93;;
3211;SDS011;1618;47.056;15.472;2023-07-13T05:23:46;1.23;;;0.93;;
3211;SDS011;1618;47.056;15.472;2023-07-13T05:26:15;1.67;;;1.67;;
3211;SDS011;1618;47.056;15.472;2023-07-13T05:28:44;1.17;;;1.17;;
3211;SDS011;1618;47.056;15.472;2023-07-13T05:31:11;3.40;;;3.30;;
3211;SDS011;1618;47.056;15.472;2023-07-13T05:33:39;1.30;;;1.20;;
3211;SDS011;1618;47.056;15.472;2023-07-13T05:36:07;1.33;;;1.30;;
3211;SDS011;1618;47.056;15.472;2023-07-13T05:38:34;1.63;;;1.53;;
3211;SDS011;1618;47.056;15.472;2023-07-13T05:41:03;1.87;;;1.80;;
3211;SDS011;1618;47.056;15.472;2023-07-13T05:43:35;1.60;;;1.60;;
3211;SDS011;1618;47.056;15.472;2023-07-13T05:46:02;2.37;;;2.27;;
3211;SDS011;1618;47.056;15.472;2023-07-13T05:48:31;1.40;;;1.40;;
3211;SDS011;1618;47.056;15.472;2023-07-13T05:51:04;1.20;;;1.20;;
3211;SDS011;1618;47.056;15.472;2023-07-13T05:53:32;3.33;;;1.40;;
3211;SDS011;1618;47.056;15.472;2023-07-13T05:56:00;1.23;;;1.23;;
3211;SDS011;1618;47.056;15.472;2023-07-13T05:58:29;1.70;;;1.60;;
3211;SDS011;1618;47.056;15.472;2023-07-13T06:01:00;1.60;;;1.60;;
3211;SDS011;1618;47.056;15.472;2023-07-13T06:03:28;1.27;;;1.27;;
3211;SDS011;1618;47.056;15.472;2023-07-13T06:05:56;1.50;;;1.50;;
3211;SDS011;1618;47.056;15.472;2023-07-13T06:08:26;1.13;;;1.13;;
3211;SDS011;1618;47.056;15.472;2023-07-13T06:10:54;1.13;;;1.10;;
3211;SDS011;1618;47.056;15.472;2023-07-13T06:13:23;1.30;;;1.30;;
3211;SDS011;1618;47.056;15.472;2023-07-13T06:15:53;2.50;;;2.40;;
3211;SDS011;1618;47.056;15.472;2023-07-13T06:18:23;2.10;;;2.00;;
3211;SDS011;1618;47.056;15.472;2023-07-13T06:20:52;1.50;;;1.50;;
3211;SDS011;1618;47.056;15.472;2023-07-13T06:23:21;1.73;;;1.73;;
3211;SDS011;1618;47.056;15.472;2023-07-13T06:25:48;2.00;;;1.90;;
3211;SDS011;1618;47.056;15.472;2023-07-13T06:28:16;1.50;;;1.40;;
3211;SDS011;1618;47.056;15.472;2023-07-13T06:30:47;1.43;;;1.33;;
3211;SDS011;1618;47.056;15.472;2023-07-13T06:33:17;1.30;;;1.20;;
3211;SDS011;1618;47.056;15.472;2023-07-13T06:35:44;1.10;;;1.00;;
3211;SDS011;1618;47.056;15.472;2023-07-13T06:38:13;1.23;;;1.23;;
3211;SDS011;1618;47.056;15.472;2023-07-13T06:40:42;1.20;;;1.20;;
3211;SDS011;1618;47.056;15.472;2023-07-13T06:43:09;2.40;;;1.40;;
3211;SDS011;1618;47.056;15.472;2023-07-13T06:45:40;1.40;;;1.30;;
3211;SDS011;1618;47.056;15.472;2023-07-13T06:48:14;1.37;;;1.27;;
3211;SDS011;1618;47.056;15.472;2023-07-13T06:50:48;1.53;;;1.27;;
3211;SDS011;1618;47.056;15.472;2023-07-13T06:53:17;1.00;;;1.00;;
3211;SDS011;1618;47.056;15.472;2023-07-13T06:55:50;1.00;;;1.00;;
3211;SDS011;1618;47.056;15.472;2023-07-13T06:58:18;1.10;;;1.10;;
3211;SDS011;1618;47.056;15.472;2023-07-13T07:00:49;1.57;;;1.50;;
3211;SDS011;1618;47.056;15.472;2023-07-13T07:03:17;1.63;;;1.53;;
3211;SDS011;1618;47.056;15.472;2023-07-13T07:05:48;2.23;;;2.13;;
3211;SDS011;1618;47.056;15.472;2023-07-13T07:08:15;2.40;;;2.30;;
3211;SDS011;1618;47.056;15.472;2023-07-13T07:10:42;2.70;;;2.60;;
3211;SDS011;1618;47.056;15.472;2023-07-13T07:13:10;2.83;;;2.73;;
3211;SDS011;1618;47.056;15.472;2023-07-13T07:15:37;2.90;;;2.80;;
3211;SDS011;1618;47.056;15.472;2023-07-13T07:18:06;3.53;;;3.43;;
3211;SDS011;1618;47.056;15.472;2023-07-13T07:20:35;3.37;;;3.27;;
3211;SDS011;1618;47.056;15.472;2023-07-13T07:23:05;3.20;;;3.10;;
3211;SDS011;1618;47.056;15.472;2023-07-13T07:25:34;4.30;;;4.00;;
3211;SDS011;1618;47.056;15.472;2023-07-13T07:28:08;4.97;;;4.77;;
3211;SDS011;1618;47.056;15.472;2023-07-13T07:30:36;6.33;;;6.13;;
3211;SDS011;1618;47.056;15.472;2023-07-13T07:33:04;6.70;;;6.40;;
3211;SDS011;1618;47.056;15.472;2023-07-13T07:35:32;8.17;;;7.87;;
3211;SDS011;1618;47.056;15.472;2023-07-13T07:37:59;9.90;;;9.50;;
3211;SDS011;1618;47.056;15.472;2023-07-13T07:40:29;8.30;;;8.00;;
3211;SDS011;1618;47.056;15.472;2023-07-13T07:42:57;9.67;;;9.27;;
3211;SDS011;1618;47.056;15.472;2023-07-13T07:45:26;10.20;;;9.80;;
3211;SDS011;1618;47.056;15.472;2023-07-13T07:47:58;11.00;;;10.50;;
3211;SDS011;1618;47.056;15.472;2023-07-13T07:50:42;14.10;;;13.40;;
3211;SDS011;1618;47.056;15.472;2023-07-13T07:53:10;14.67;;;13.97;;
3211;SDS011;1618;47.056;15.472;2023-07-13T07:55:39;15.10;;;14.30;;
3211;SDS011;1618;47.056;15.472;2023-07-13T07:58:08;16.50;;;15.60;;
3211;SDS011;1618;47.056;15.472;2023-07-13T08:00:36;18.87;;;17.67;;
3211;SDS011;1618;47.056;15.472;2023-07-13T08:05:50;18.83;;;17.73;;
3211;SDS011;1618;47.056;15.472;2023-07-13T08:08:20;19.60;;;18.50;;
3211;SDS011;1618;47.056;15.472;2023-07-13T08:10:50;22.30;;;20.90;;
3211;SDS011;1618;47.056;15.472;2023-07-13T08:13:18;25.27;;;23.77;;
3211;SDS011;1618;47.056;15.472;2023-07-13T08:15:50;22.07;;;20.67;;
3211;SDS011;1618;47.056;15.472;2023-07-13T08:18:18;27.87;;;26.13;;
3211;SDS011;1618;47.056;15.472;2023-07-13T08:20:46;24.60;;;22.90;;
3211;SDS011;1618;47.056;15.472;2023-07-13T08:23:14;26.80;;;25.10;;
3211;SDS011;1618;47.056;15.472;2023-07-13T08:25:42;27.00;;;25.20;;
3211;SDS011;1618;47.056;15.472;2023-07-13T08:28:12;26.63;;;24.83;;
3211;SDS011;1618;47.056;15.472;2023-07-13T08:30:40;28.13;;;26.33;;
3211;SDS011;1618;47.056;15.472;2023-07-13T08:33:09;29.90;;;27.90;;
3211;SDS011;1618;47.056;15.472;2023-07-13T08:35:40;32.13;;;29.93;;
3211;SDS011;1618;47.056;15.472;2023-07-13T08:38:09;32.80;;;30.80;;
3211;SDS011;1618;47.056;15.472;2023-07-13T08:40:37;35.27;;;32.87;;
3211;SDS011;1618;47.056;15.472;2023-07-13T08:43:07;33.07;;;30.67;;
3211;SDS011;1618;47.056;15.472;2023-07-13T08:45:47;34.60;;;32.10;;
3211;SDS011;1618;47.056;15.472;2023-07-13T08:48:18;32.57;;;30.13;;
3211;SDS011;1618;47.056;15.472;2023-07-13T08:50:48;32.97;;;30.47;;
3211;SDS011;1618;47.056;15.472;2023-07-13T08:53:17;32.87;;;30.37;;
3211;SDS011;1618;47.056;15.472;2023-07-13T08:55:45;33.20;;;30.70;;
3211;SDS011;1618;47.056;15.472;2023-07-13T08:58:13;32.70;;;30.20;;
3211;SDS011;1618;47.056;15.472;2023-07-13T09:00:42;32.17;;;29.67;;
3211;SDS011;1618;47.056;15.472;2023-07-13T09:03:16;31.93;;;29.43;;
3211;SDS011;1618;47.056;15.472;2023-07-13T09:05:47;30.60;;;28.30;;
3211;SDS011;1618;47.056;15.472;2023-07-13T09:08:24;33.00;;;30.60;;
3211;SDS011;1618;47.056;15.472;2023-07-13T09:10:59;32.87;;;30.47;;
3211;SDS011;1618;47.056;15.472;2023-07-13T09:13:43;33.63;;;31.13;;
3211;SDS011;1618;47.056;15.472;2023-07-13T09:16:18;32.27;;;29.77;;
3211;SDS011;1618;47.056;15.472;2023-07-13T09:18:59;32.73;;;30.07;;
3211;SDS011;1618;47.056;15.472;2023-07-13T09:21:29;32.97;;;30.37;;
3211;SDS011;1618;47.056;15.472;2023-07-13T09:24:15;33.20;;;30.60;;
3211;SDS011;1618;47.056;15.472;2023-07-13T09:26:50;34.23;;;31.53;;
3211;SDS011;1618;47.056;15.472;2023-07-13T09:29:23;32.57;;;29.97;;
3211;SDS011;1618;47.056;15.472;2023-07-13T09:32:01;34.00;;;31.30;;
3211;SDS011;1618;47.056;15.472;2023-07-13T09:34:31;34.23;;;31.43;;
3211;SDS011;1618;47.056;15.472;2023-07-13T09:37:01;33.53;;;30.83;;
3211;SDS011;1618;47.056;15.472;2023-07-13T09:39:32;33.43;;;30.73;;
3211;SDS011;1618;47.056;15.472;2023-07-13T09:42:20;32.03;;;29.43;;
3211;SDS011;1618;47.056;15.472;2023-07-13T09:45:04;32.43;;;29.80;;
3211;SDS011;1618;47.056;15.472;2023-07-13T09:47:40;32.80;;;30.30;;
3211;SDS011;1618;47.056;15.472;2023-07-13T09:55:50;33.40;;;30.80;;
3211;SDS011;1618;47.056;15.472;2023-07-13T09:58:33;33.07;;;30.40;;
3211;SDS011;1618;47.056;15.472;2023-07-13T10:01:04;33.33;;;30.63;;
3211;SDS011;1618;47.056;15.472;2023-07-13T10:03:51;34.23;;;30.47;;
3211;SDS011;1618;47.056;15.472;2023-07-13T10:06:39;32.43;;;29.77;;
3211;SDS011;1618;47.056;15.472;2023-07-13T10:09:19;32.83;;;30.13;;
3211;SDS011;1618;47.056;15.472;2023-07-13T10:11:49;33.03;;;30.23;;
3211;SDS011;1618;47.056;15.472;2023-07-13T10:14:21;33.60;;;30.90;;
3211;SDS011;1618;47.056;15.472;2023-07-13T10:16:55;33.37;;;30.67;;
3211;SDS011;1618;47.056;15.472;2023-07-13T10:19:25;30.90;;;28.30;;
3211;SDS011;1618;47.056;15.472;2023-07-13T10:21:57;33.57;;;30.77;;
3211;SDS011;1618;47.056;15.472;2023-07-13T10:24:27;33.17;;;30.47;;
3211;SDS011;1618;47.056;15.472;2023-07-13T10:27:05;33.33;;;30.63;;
3211;SDS011;1618;47.056;15.472;2023-07-13T10:29:39;33.70;;;30.80;;
3211;SDS011;1618;47.056;15.472;2023-07-13T10:32:10;34.43;;;31.63;;
3211;SDS011;1618;47.056;15.472;2023-07-13T10:34:40;34.30;;;31.50;;
3211;SDS011;1618;47.056;15.472;2023-07-13T10:37:14;34.30;;;31.40;;
3211;SDS011;1618;47.056;15.472;2023-07-13T10:39:43;32.83;;;30.10;;
3211;SDS011;1618;47.056;15.472;2023-07-13T10:42:15;32.20;;;29.50;;
3211;SDS011;1618;47.056;15.472;2023-07-13T10:44:44;32.47;;;29.77;;
3211;SDS011;1618;47.056;15.472;2023-07-13T10:47:13;33.20;;;30.50;;
3211;SDS011;1618;47.056;15.472;2023-07-13T10:49:44;33.53;;;30.47;;
3211;SDS011;1618;47.056;15.472;2023-07-13T10:54:54;33.77;;;30.97;;
3211;SDS011;1618;47.056;15.472;2023-07-13T10:57:25;35.20;;;32.30;;
3211;SDS011;1618;47.056;15.472;2023-07-13T11:00:10;34.80;;;31.93;;
3211;SDS011;1618;47.056;15.472;2023-07-13T11:02:40;35.20;;;32.30;;
3211;SDS011;1618;47.056;15.472;2023-07-13T11:05:15;34.60;;;31.80;;
3211;SDS011;1618;47.056;15.472;2023-07-13T11:07:52;35.83;;;33.07;;
3211;SDS011;1618;47.056;15.472;2023-07-13T11:13:27;35.13;;;32.13;;
3211;SDS011;1618;47.056;15.472;2023-07-13T11:15:56;34.20;;;31.30;;
3211;SDS011;1618;47.056;15.472;2023-07-13T11:18:25;33.80;;;31.00;;
3211;SDS011;1618;47.056;15.472;2023-07-13T11:21:04;33.60;;;30.80;;
3211;SDS011;1618;47.056;15.472;2023-07-13T11:23:42;33.00;;;30.20;;
3211;SDS011;1618;47.056;15.472;2023-07-13T11:28:56;34.77;;;31.73;;
3211;SDS011;1618;47.056;15.472;2023-07-13T11:31:24;35.83;;;32.90;;
3211;SDS011;1618;47.056;15.472;2023-07-13T11:33:54;34.57;;;31.67;;
3211;SDS011;1618;47.056;15.472;2023-07-13T11:36:35;34.57;;;31.67;;
3211;SDS011;1618;47.056;15.472;2023-07-13T11:39:05;34.27;;;31.43;;
3211;SDS011;1618;47.056;15.472;2023-07-13T11:41:43;34.90;;;32.10;;
3211;SDS011;1618;47.056;15.472;2023-07-13T11:44:14;36.87;;;33.73;;
3211;SDS011;1618;47.056;15.472;2023-07-13T11:46:46;34.93;;;32.03;;
3211;SDS011;1618;47.056;15.472;2023-07-13T11:49:16;35.90;;;33.00;;
3211;SDS011;1618;47.056;15.472;2023-07-13T11:51:44;36.83;;;33.83;;
3211;SDS011;1618;47.056;15.472;2023-07-13T11:54:23;36.23;;;33.23;;
3211;SDS011;1618;47.056;15.472;2023-07-13T11:56:53;35.20;;;32.40;;
3211;SDS011;1618;47.056;15.472;2023-07-13T11:59:23;34.33;;;31.53;;
3211;SDS011;1618;47.056;15.472;2023-07-13T12:01:52;35.20;;;32.30;;
3211;SDS011;1618;47.056;15.472;2023-07-13T12:04:21;34.87;;;32.07;;
3211;SDS011;1618;47.056;15.472;2023-07-13T12:07:03;34.53;;;31.60;;
3211;SDS011;1618;47.056;15.472;2023-07-13T12:09:33;33.40;;;30.80;;
3211;SDS011;1618;47.056;15.472;2023-07-13T12:12:03;34.03;;;31.43;;
3211;SDS011;1618;47.056;15.472;2023-07-13T12:14:34;32.53;;;29.93;;
3211;SDS011;1618;47.056;15.472;2023-07-13T12:17:03;31.70;;;29.10;;
3211;SDS011;1618;47.056;15.472;2023-07-13T12:19:36;32.00;;;29.40;;
3211;SDS011;1618;47.056;15.472;2023-07-13T12:22:08;32.60;;;30.00;;
3211;SDS011;1618;47.056;15.472;2023-07-13T12:24:36;34.00;;;31.30;;
3211;SDS011;1618;47.056;15.472;2023-07-13T12:27:05;34.93;;;32.23;;
3211;SDS011;1618;47.056;15.472;2023-07-13T12:29:34;33.43;;;30.83;;
3211;SDS011;1618;47.056;15.472;2023-07-13T12:32:07;33.70;;;31.00;;
3211;SDS011;1618;47.056;15.472;2023-07-13T12:34:49;32.87;;;30.17;;
3211;SDS011;1618;47.056;15.472;2023-07-13T12:37:20;31.70;;;29.10;;
3211;SDS011;1618;47.056;15.472;2023-07-13T12:39:49;34.50;;;31.70;;
3211;SDS011;1618;47.056;15.472;2023-07-13T12:42:19;33.03;;;30.43;;
3211;SDS011;1618;47.056;15.472;2023-07-13T12:44:58;32.43;;;29.83;;
3211;SDS011;1618;47.056;15.472;2023-07-13T12:47:27;31.43;;;28.83;;
3211;SDS011;1618;47.056;15.472;2023-07-13T12:50:04;29.93;;;27.63;;
3211;SDS011;1618;47.056;15.472;2023-07-13T12:52:35;29.33;;;27.13;;
3211;SDS011;1618;47.056;15.472;2023-07-13T12:55:07;27.97;;;26.07;;
3211;SDS011;1618;47.056;15.472;2023-07-13T12:57:41;28.30;;;26.40;;
3211;SDS011;1618;47.056;15.472;2023-07-13T13:00:21;27.57;;;25.67;;
3211;SDS011;1618;47.056;15.472;2023-07-13T13:02:52;29.53;;;27.63;;
3211;SDS011;1618;47.056;15.472;2023-07-13T13:05:22;25.80;;;24.17;;
3211;SDS011;1618;47.056;15.472;2023-07-13T13:07:51;26.90;;;25.20;;
3211;SDS011;1618;47.056;15.472;2023-07-13T13:10:22;24.90;;;23.30;;
3211;SDS011;1618;47.056;15.472;2023-07-13T13:12:52;26.03;;;24.33;;
3211;SDS011;1618;47.056;15.472;2023-07-13T13:15:22;25.80;;;24.10;;
3211;SDS011;1618;47.056;15.472;2023-07-13T13:17:49;26.67;;;24.97;;
3211;SDS011;1618;47.056;15.472;2023-07-13T13:20:17;26.97;;;25.27;;
3211;SDS011;1618;47.056;15.472;2023-07-13T13:22:45;26.87;;;25.13;;
3211;SDS011;1618;47.056;15.472;2023-07-13T13:25:12;25.40;;;23.80;;
3211;SDS011;1618;47.056;15.472;2023-07-13T13:27:41;24.70;;;23.10;;
3211;SDS011;1618;47.056;15.472;2023-07-13T13:30:11;24.73;;;23.23;;
3211;SDS011;1618;47.056;15.472;2023-07-13T13:32:42;26.00;;;24.40;;
3211;SDS011;1618;47.056;15.472;2023-07-13T13:35:12;25.97;;;24.37;;
3211;SDS011;1618;47.056;15.472;2023-07-13T13:37:41;25.67;;;24.07;;
3211;SDS011;1618;47.056;15.472;2023-07-13T13:40:13;24.73;;;23.23;;
3211;SDS011;1618;47.056;15.472;2023-07-13T13:42:41;24.20;;;22.70;;
3211;SDS011;1618;47.056;15.472;2023-07-13T13:45:09;22.40;;;21.10;;
3211;SDS011;1618;47.056;15.472;2023-07-13T13:47:37;21.80;;;20.50;;
3211;SDS011;1618;47.056;15.472;2023-07-13T13:50:16;20.70;;;19.50;;
3211;SDS011;1618;47.056;15.472;2023-07-13T13:52:44;19.23;;;18.13;;
3211;SDS011;1618;47.056;15.472;2023-07-13T13:55:13;19.20;;;18.10;;
3211;SDS011;1618;47.056;15.472;2023-07-13T13:57:42;17.40;;;16.40;;
3211;SDS011;1618;47.056;15.472;2023-07-13T14:00:09;17.60;;;16.60;;
3211;SDS011;1618;47.056;15.472;2023-07-13T14:02:39;17.30;;;16.40;;
3211;SDS011;1618;47.056;15.472;2023-07-13T14:05:09;17.50;;;16.60;;
3211;SDS011;1618;47.056;15.472;2023-07-13T14:07:42;18.53;;;17.53;;
3211;SDS011;1618;47.056;15.472;2023-07-13T14:10:12;21.73;;;20.43;;
3211;SDS011;1618;47.056;15.472;2023-07-13T14:12:41;24.20;;;22.80;;
3211;SDS011;1618;47.056;15.472;2023-07-13T14:15:13;26.40;;;24.63;;
3211;SDS011;1618;47.056;15.472;2023-07-13T14:17:43;26.60;;;25.10;;
3211;SDS011;1618;47.056;15.472;2023-07-13T14:20:11;24.00;;;22.70;;
3211;SDS011;1618;47.056;15.472;2023-07-13T14:22:45;23.03;;;21.83;;
3211;SDS011;1618;47.056;15.472;2023-07-13T14:25:12;21.67;;;20.57;;
3211;SDS011;1618;47.056;15.472;2023-07-13T14:27:41;19.10;;;18.07;;
3211;SDS011;1618;47.056;15.472;2023-07-13T14:30:12;18.43;;;17.53;;
3211;SDS011;1618;47.056;15.472;2023-07-13T14:32:41;17.33;;;16.43;;
3211;SDS011;1618;47.056;15.472;2023-07-13T14:35:10;17.80;;;16.90;;
3211;SDS011;1618;47.056;15.472;2023-07-13T14:37:38;19.10;;;18.20;;
3211;SDS011;1618;47.056;15.472;2023-07-13T14:40:13;17.37;;;16.50;;
3211;SDS011;1618;47.056;15.472;2023-07-13T14:42:41;20.27;;;19.17;;
3211;SDS011;1618;47.056;15.472;2023-07-13T14:45:12;19.30;;;18.30;;
3211;SDS011;1618;47.056;15.472;2023-07-13T14:47:40;21.20;;;20.00;;
3211;SDS011;1618;47.056;15.472;2023-07-13T14:50:12;20.77;;;19.67;;
3211;SDS011;1618;47.056;15.472;2023-07-13T14:52:40;20.23;;;19.13;;
3211;SDS011;1618;47.056;15.472;2023-07-13T14:55:10;18.73;;;17.70;;
3211;SDS011;1618;47.056;15.472;2023-07-13T14:57:43;20.03;;;18.90;;
3211;SDS011;1618;47.056;15.472;2023-07-13T15:00:14;21.00;;;19.80;;
3211;SDS011;1618;47.056;15.472;2023-07-13T15:02:43;21.53;;;20.33;;
3211;SDS011;1618;47.056;15.472;2023-07-13T15:05:14;21.60;;;20.40;;
3211;SDS011;1618;47.056;15.472;2023-07-13T15:07:47;22.80;;;21.50;;
3211;SDS011;1618;47.056;15.472;2023-07-13T15:10:15;21.40;;;20.20;;
3211;SDS011;1618;47.056;15.472;2023-07-13T15:12:45;20.70;;;19.50;;
3211;SDS011;1618;47.056;15.472;2023-07-13T15:15:13;19.50;;;18.50;;
3211;SDS011;1618;47.056;15.472;2023-07-13T15:17:41;16.70;;;15.90;;
3211;SDS011;1618;47.056;15.472;2023-07-13T15:20:19;17.20;;;16.23;;